Sand Lake, Michigan
Current Conditions -  °F | °C
As of 5:50 AM on Friday 31 Oct 2014 (Local Time) from KFFX Reporting Station
Drizzle Drizzle  
Wind Chill: 32°   Ceiling: 1600
Heat Index: 39°   Visibility: 7mi
Dew Point: 38°   Wind: 12mph
Humidity: 94%   Direction: 320°NW
Pressure: 29.93"   Gusts: NA
Location:  43.29°N, 85.52°W
Report Text: KFFX 310950Z AUTO 32010KT 7SM DZ BKN016 OVC026 04/03 A2993 RMK AO2 T00400031
Loading
Personal Weather Stations






























Interactive Weather Map
Tropical Storm Tracking
New forecast layout! Learn more

10-Day Weather Forecast

Advertisements
Track Severe Weather on mobile